Frej — SBPT — position and weather

sailwx.info

Track history (hours):
 
Tides and Currents Weather Stations Pressure Air Temp Water Temp Dewpoint Dewpoint Depression Visibility Wind Speed Wind Dir Waves Ship Positions

Frej

Last reported at 2018-Apr-25 12:00 UTC. Time now 2018-Apr-25 12:38 UTC.
Position N 65°00' E 021°42'.

Length 108 m; draft 7.2 m.

Type: Other ship. MMSI: 265068000.

Wind from 170 at 16 knots

Barometer 989.6 mb
Air temperature 0.4 ° C
Water temperature 0.7 ° C

Date/timePositionNaut miles runAvg speedWind from/ knotsBaromVisibWave heightAir tempDewpointWater temp
2018-Apr-25 12:00N 65°00' E 021°42'7 6.5 170 / 16989.6 0.4 0.7
2018-Apr-25 11:00N 65°06' E 021°36'0 0.0 320 / 6990.1 1.4 1.0
2018-Apr-25 10:00N 65°06' E 021°36'0 0.0 180 / 14990.0 1.0 1.5
2018-Apr-25 09:00N 65°06' E 021°36'0 0.0 180 / 14989.9 1.0 1.4
2018-Apr-25 08:00N 65°06' E 021°36'0 0.0 190 / 14990.1 0.5 1.2
2018-Apr-25 07:00N 65°06' E 021°36'0 0.0 190 / 14990.2 0.2 1.5
2018-Apr-25 06:00N 65°06' E 021°36'0 0.0 190 / 16990.2 -0.1 1.6
2018-Apr-25 05:00N 65°06' E 021°36'0 0.0 190 / 19990.3 0.6 1.5
2018-Apr-25 04:00N 65°06' E 021°36'0 0.0 180 / 16990.6 0.2 1.4
2018-Apr-25 03:00N 65°06' E 021°36'0 0.0 180 / 10990.8 -0.5 1.3
2018-Apr-25 02:00N 65°06' E 021°36'3 2.5 190 / 14991.1 -0.1 1.2
2018-Apr-25 01:00N 65°06' E 021°42'10 9.7 200 / 12991.4 0.1 0.6
2018-Apr-25 00:00N 65°00' E 022°00'8 7.6 200 / 14991.9 0.1 0.4
2018-Apr-24 23:00N 65°00' E 022°18'1212.0 210 / 19992.0 1.0 0.4
2018-Apr-24 22:00N 65°12' E 022°18'6 6.0 210 / 16991.8 0.9 0.4
2018-Apr-24 21:00N 65°18' E 022°18'6 6.0 220 / 21992.1 1.4 0.5
2018-Apr-24 20:00N 65°12' E 022°18'12 6.1 210 / 19992.2 1.3 0.4
2018-Apr-24 18:00N 65°00' E 022°12'1212.3 200 / 19991.6 1.0 0.5
2018-Apr-24 17:00N 65°12' E 022°18'1212.0 210 / 19991.1 0.6 0.4
2018-Apr-24 16:00N 65°24' E 022°18'6 6.5 190 / 16991.0 0.4 0.6
2018-Apr-24 15:00N 65°30' E 022°24'8 7.8 160 / 14991.5 1.4 0.6
2018-Apr-24 14:00N 65°36' E 022°12'0 0.0 150 / 14992.4 1.7 1.0
2018-Apr-24 13:00N 65°36' E 022°12'0 0.0 120 / 12993.3 1.8 1.0
2018-Apr-24 12:00N 65°36' E 022°12'0 0.0 140 / 17994.2 1.7 1.0
2018-Apr-24 11:00N 65°36' E 022°12'0 0.0 130 / 14994.8 1.4 1.0
2018-Apr-24 10:00N 65°36' E 022°12'0 0.0 150 / 10995.4 1.3 1.0
2018-Apr-24 09:00N 65°36' E 022°12'0 0.0 120 / 12996.1 1.0 1.0
2018-Apr-24 06:00N 65°36' E 022°12'0 0.0 130 / 10995.8 2.5 1.1
2018-Apr-24 03:00N 65°36' E 022°12'0 0.0 130 / 6998.4 2.0 1.1
2018-Apr-24 00:00N 65°36' E 022°12'1313.0 130 / 81002.8 1.6 0.5
2018-Apr-23 23:00N 65°24' E 022°24'7 6.5 140 / 121003.6 1.0 0.6
2018-Apr-23 22:00N 65°18' E 022°18'1212.0 170 / 121004.2 0.9 0.4
2018-Apr-23 21:00N 65°06' E 022°18'0 0.0 160 / 141004.8 0.8 0.7
2018-Apr-23 18:00N 65°06' E 022°18'0 0.0 160 / 141006.7 1.1 1.0
2018-Apr-23 17:00N 65°06' E 022°18'0 0.0 170 / 141007.2 1.4 1.0
2018-Apr-23 16:00N 65°06' E 022°18'0 0.0 170 / 141008.1 1.2 1.0
2018-Apr-23 15:00N 65°06' E 022°18'0 0.0 160 / 161008.8 1.2 1.0
2018-Apr-23 14:00N 65°06' E 022°18'8 7.6 170 / 161009.4 1.0 0.5
2018-Apr-23 13:00N 65°06' E 022°36'8 7.9 200 / 171010.3 1.5 0.8
2018-Apr-23 12:00N 65°00' E 022°24'8 7.9 170 / 191010.6 1.5 0.5
2018-Apr-23 11:00N 65°06' E 022°12'1211.8 160 / 141011.0 0.9 1.0
2018-Apr-23 10:00N 65°00' E 021°48'0 0.0 170 / 171010.6 0.7 0.6
2018-Apr-23 09:00N 65°00' E 021°48'1818.0 160 / 161011.6 1.0 0.6
2018-Apr-23 08:00N 64°42' E 021°48'6 6.0 170 / 121012.2 1.1 1.1
2018-Apr-23 07:00N 64°36' E 021°48'0 0.0 180 / 161012.7 0.1 1.2
2018-Apr-23 06:00N 64°36' E 021°48'0 0.0 170 / 141012.9 0.1 1.1
2018-Apr-23 05:00N 64°36' E 021°48'0 0.0 180 / 141013.2 0.1 1.0
2018-Apr-23 04:00N 64°36' E 021°48'3 2.6 180 / 141013.4 -0.2 0.9
2018-Apr-23 03:00N 64°36' E 021°42'0 0.0 180 / 121013.5 -0.1 0.9
2018-Apr-23 02:00N 64°36' E 021°42'0 0.0 180 / 141013.9 -0.0 1.0
2018-Apr-23 01:00N 64°36' E 021°42'0 0.0 180 / 161013.9 0.1 1.0
2018-Apr-23 00:00N 64°36' E 021°42'0 0.0 180 / 141014.3 -0.0 1.0
2018-Apr-22 23:00N 64°36' E 021°42'0 0.0 180 / 141014.6 -0.0 1.2
2018-Apr-22 22:00N 64°36' E 021°42'0 0.0 180 / 121014.8 0.2 1.2
2018-Apr-22 21:00N 64°36' E 021°42'0 0.0 200 / 161014.6 0.4 1.0
2018-Apr-22 20:00N 64°36' E 021°42'0 0.0 190 / 141014.8 0.1 1.0
2018-Apr-22 19:00N 64°36' E 021°42'0 0.0 180 / 161015.0 0.1 1.0
2018-Apr-22 18:00N 64°36' E 021°42'0 0.0 180 / 141015.1 0.2 0.9
2018-Apr-22 17:00N 64°36' E 021°42'0 0.0 180 / 141015.2 0.4 0.9
2018-Apr-22 16:00N 64°36' E 021°42'0 0.0 170 / 121015.2 0.4 0.9
2018-Apr-22 15:00N 64°36' E 021°42'0 0.0 160 / 121015.3 0.4 0.8
2018-Apr-22 14:00N 64°36' E 021°42'0 0.0 170 / 81015.5 0.4 0.8
2018-Apr-22 13:00N 64°36' E 021°42'0 0.0 130 / 81015.8 -0.3 1.0
2018-Apr-22 12:00N 64°36' E 021°42'7 6.5 100 / 101016.0 -1.1 0.7
2018-Apr-22 11:00N 64°30' E 021°48'3 2.6 060 / 41015.6 -1.2 0.6
2018-Apr-22 10:00N 64°30' E 021°42'1212.0 050 / 41015.3 0.2 1.4
2018-Apr-22 09:00N 64°18' E 021°42'7 6.5 020 / 81015.0 0.4 0.6
2018-Apr-22 08:00N 64°12' E 021°48'1212.3 350 / 101014.4 0.1 0.4
2018-Apr-22 07:00N 64°00' E 021°54'6 6.0 050 / 101013.3 0.2 0.4
2018-Apr-22 06:00N 64°06' E 021°54'8 8.0 060 / 81012.8 0.2 0.4
2018-Apr-22 05:00N 64°12' E 021°42'6 6.0 030 / 101012.2 -0.0 0.4
2018-Apr-22 04:00N 64°18' E 021°42'1212.3 030 / 101011.5 0.1 0.5
2018-Apr-22 03:00N 64°30' E 021°48'1212.0 040 / 141010.3 0.2 0.6
2018-Apr-22 02:00N 64°18' E 021°48'1212.3 040 / 121009.1 0.2 0.4
2018-Apr-22 01:00N 64°06' E 021°54'1212.0 020 / 161007.7 0.2 0.4
2018-Apr-22 00:00N 63°54' E 021°54'10 9.9 1006.8 -0.0 0.4
2018-Apr-21 23:00N 63°48' E 021°36'10 9.9 350 / 101006.1 -0.1 0.5
2018-Apr-21 22:00N 63°54' E 021°54'1212.0 020 / 61005.5 -0.1 0.5
2018-Apr-21 21:00N 64°06' E 021°54'1212.3 010 / 61005.0 -0.1 0.3
2018-Apr-21 20:00N 64°18' E 021°48'6 6.0 060 / 41004.7 -0.1 0.6
2018-Apr-21 19:00N 64°24' E 021°48'6 6.0 040 / 81004.4 -0.1 0.4
2018-Apr-21 18:00N 64°18' E 021°48'0 0.0 020 / 41003.9 -0.0 0.6
2018-Apr-21 17:00N 64°18' E 021°48'0 0.0 310 / 21003.8 0.1 0.9
2018-Apr-21 16:00N 64°18' E 021°48'0 0.0 310 / 21003.3 0.7 0.9
2018-Apr-21 15:00N 64°18' E 021°48'0 0.0 280 / 41003.2 0.2 0.8
2018-Apr-21 14:00N 64°18' E 021°48'0 0.0 060 / 81002.5 -0.1 0.8
2018-Apr-21 13:00N 64°18' E 021°48'0 0.0 040 / 81002.4 -0.1 1.0
2018-Apr-21 12:00N 64°18' E 021°48'0 0.0 020 / 41002.2 0.3 0.9
2018-Apr-21 11:00N 64°18' E 021°48'0 0.0 020 / 41001.5 0.3 0.8
2018-Apr-21 10:00N 64°18' E 021°48'0 0.0 030 / 81001.0 0.3 0.7
2018-Apr-21 09:00N 64°18' E 021°48'0 0.0 020 / 61000.5 0.2 0.8
2018-Apr-21 08:00N 64°18' E 021°48'0 0.0 020 / 8100.0 0.2 0.7
2018-Apr-21 07:00N 64°18' E 021°48'0 0.0 350 / 10999.6 0.2 0.7
2018-Apr-21 06:00N 64°18' E 021°48'0 0.0 020 / 8999.4 -0.1 0.6
2018-Apr-21 05:00N 64°18' E 021°48'0 0.0 020 / 12999.4 -0.2 0.6
2018-Apr-21 04:00N 64°18' E 021°48'0 0.0 999.3 -0.2 0.6
2018-Apr-21 03:00N 64°18' E 021°48'0 0.0 999.6 -0.4 0.7
2018-Apr-21 02:00N 64°18' E 021°48'3 2.6 340 / 12999.8 -0.3 0.8
2018-Apr-21 01:00N 64°18' E 021°54'0 0.0 360 / 81000.1 0.9 1.0
2018-Apr-21 00:00N 64°18' E 021°54'0 0.0 320 / 61000.5 1.8 1.0
2018-Apr-20 23:00N 64°18' E 021°54'0 0.0 330 / 6998.5 5.1 1.0
2018-Apr-20 22:00N 64°18' E 021°54'0 0.0 300 / 6999.3 4.3 0.8
2018-Apr-20 21:00N 64°18' E 021°54'0 0.0 360 / 6999.6 4.1 0.9
2018-Apr-20 20:00N 64°18' E 021°54'7 6.5 290 / 101000.7 7.0 0.5
2018-Apr-20 19:00N 64°24' E 021°48'1212.3 270 / 141001.6 7.1 0.6
2018-Apr-20 18:00N 64°12' E 021°54'1212.3 240 / 171002.9 4.0 0.3
2018-Apr-20 17:00N 64°00' E 022°00'5 5.3 240 / 141003.9 3.6 0.4
2018-Apr-20 16:00N 64°00' E 021°48'1313.2 210 / 101004.5 5.5 0.5
2018-Apr-20 15:00N 64°00' E 021°18'10 9.9 210 / 81005.6 6.5 0.5
2018-Apr-20 14:00N 63°54' E 021°00'8 8.0 250 / 81006.3 9.1 0.5
2018-Apr-20 13:00N 63°48' E 020°48'0 0.0 290 / 101007.2 8.5 1.0
2018-Apr-20 12:00N 63°48' E 020°48'0 0.0 310 / 101007.5 9.8 0.7
2018-Apr-20 11:00N 63°48' E 020°48'0 0.0 260 / 81008.7 3.5 1.5
2018-Apr-20 10:00N 63°48' E 020°48'0 0.0 230 / 161008.6 4.5 0.6
2018-Apr-20 09:00N 63°48' E 020°48'7 6.6 250 / 121009.6 3.0 0.9
2018-Apr-20 08:00N 63°54' E 020°54'3 2.6 260 / 101010.2 2.4 0.4
2018-Apr-20 07:00N 63°54' E 020°48'5 5.3 250 / 121010.7 2.2 0.4
2018-Apr-20 06:00N 63°54' E 021°00'3 2.6 240 / 171011.6 2.0 0.5
2018-Apr-20 05:00N 63°54' E 020°54'1212.1 200 / 191013.3 1.7 0.5
2018-Apr-20 04:00N 64°00' E 021°18'10 9.9 210 / 161014.7 0.9 0.4
2018-Apr-20 03:00N 64°06' E 021°36'1212.0 220 / 161015.7 1.1 0.4
2018-Apr-20 02:00N 64°18' E 021°36'7 6.5 220 / 121016.9 1.0 0.6
2018-Apr-20 01:00N 64°24' E 021°42'7 6.5 200 / 161017.4 1.3 0.7
2018-Apr-20 00:00N 64°30' E 021°48'6 6.0 180 / 161018.5 1.7 0.8
2018-Apr-19 23:00N 64°24' E 021°48'0 0.0 180 / 161018.1 2.0 0.8
2018-Apr-19 22:00N 64°24' E 021°48'0 0.0 170 / 161018.7 2.3 1.0
2018-Apr-19 21:00N 64°24' E 021°48'0 0.0 170 / 171019.4 3.0 1.0
2018-Apr-19 20:00N 64°24' E 021°48'0 0.0 160 / 171019.7 4.6 1.0
2018-Apr-19 19:00N 64°24' E 021°48'0 0.0 160 / 121020.3 5.9 1.0
2018-Apr-19 18:00N 64°24' E 021°48'0 0.0 170 / 121020.8 4.4 1.0
2018-Apr-19 17:00N 64°24' E 021°48'10 9.8 180 / 121021.3 4.2 0.5
2018-Apr-19 16:00N 64°30' E 022°06'1010.3 210 / 141021.5 3.1 0.4
2018-Apr-19 15:00N 64°30' E 022°30'0 0.0 030 / 141021.5 4.0 0.4
2018-Apr-19 14:00N 64°30' E 022°30'1312.9 040 / 121021.7 4.5 0.4
2018-Apr-19 13:00N 64°30' E 022°00'1211.9 050 / 161021.3 5.3 0.5
2018-Apr-19 12:00N 64°36' E 021°36'10 9.8 060 / 121021.5 6.8 1.9
2018-Apr-19 11:00N 64°42' E 021°18'0 0.0 040 / 141021.0 9.0 0.7
2018-Apr-19 10:00N 64°42' E 021°18'0 0.0 090 / 21020.8 7.5 1.0
2018-Apr-19 09:00N 64°42' E 021°18'6 6.0 350 / 81020.2 10.8 0.8
2018-Apr-19 08:00N 64°36' E 021°18'8 7.7 1019.9 7.6 0.6
2018-Apr-19 07:00N 64°36' E 021°36'8 7.9 310 / 231019.2 5.2 1.5
2018-Apr-19 06:00N 64°30' E 021°48'0 0.0 310 / 211018.6 5.2 0.6
2018-Apr-19 05:00N 64°30' E 021°48'0 0.0 320 / 211018.2 4.5 0.6
2018-Apr-19 04:00N 64°30' E 021°48'0 0.0 310 / 191017.5 4.0 0.6
2018-Apr-19 03:00N 64°30' E 021°48'0 0.0 310 / 191016.8 4.7 0.7
2018-Apr-19 02:00N 64°30' E 021°48'0 0.0 300 / 171016.3 4.8 0.7
2018-Apr-19 01:00N 64°30' E 021°48'3 2.6 300 / 171015.8 6.3 0.6
2018-Apr-19 00:00N 64°30' E 021°54'1211.9 280 / 171015.2 5.9 0.5
2018-Apr-18 23:00N 64°36' E 022°18'1312.9 270 / 211015.3 3.4 0.4
2018-Apr-18 22:00N 64°36' E 022°48'8 7.7 270 / 191017.3 1.8 0.3
2018-Apr-18 21:00N 64°36' E 022°30'1010.3 270 / 161015.7 2.1 0.3
2018-Apr-18 20:00N 64°36' E 022°06'1211.9 260 / 161015.1 4.6 0.4
2018-Apr-18 19:00N 64°30' E 021°42'3 2.6 270 / 141014.9 8.2 1.3
2018-Apr-18 18:00N 64°30' E 021°48'0 0.0 230 / 121015.2 4.8 0.9
2018-Apr-18 17:00N 64°30' E 021°48'3 2.6 220 / 121016.0 2.0 0.8
2018-Apr-18 16:00N 64°30' E 021°42'8 7.9 200 / 171015.9 2.0 1.4
2018-Apr-18 15:00N 64°36' E 021°30'8 7.9 180 / 141014.3 9.6 1.5
2018-Apr-18 14:00N 64°42' E 021°18'10 9.8 180 / 101014.6 11.5 0.6
2018-Apr-18 13:00N 64°36' E 021°36'1010.3 180 / 171015.8 5.7 1.4
2018-Apr-18 12:00N 64°36' E 022°00'1312.9 200 / 171017.1 2.1 0.4
2018-Apr-18 11:00N 64°36' E 022°30'0 0.0 210 / 81017.0 2.8 0.4
2018-Apr-18 10:00N 64°36' E 022°30'1312.9 250 / 41017.6 2.2 0.4
2018-Apr-18 09:00N 64°36' E 022°00'8 7.9 180 / 61017.1 3.3 0.4
2018-Apr-18 08:00N 64°30' E 021°48'0 0.0 200 / 81016.6 6.5 0.4
2018-Apr-18 07:00N 64°30' E 021°48'0 0.0 190 / 61017.1 3.5 0.4
2018-Apr-18 06:00N 64°30' E 021°48'0 0.0 230 / 61017.9 2.0 0.4
2018-Apr-18 05:00N 64°30' E 021°48'0 0.0 300 / 41017.1 4.1 0.4
2018-Apr-18 04:00N 64°30' E 021°48'0 0.0 330 / 101017.6 2.3 0.4
2018-Apr-18 03:00N 64°30' E 021°48'7 6.5 320 / 81019.6 0.7 0.5
2018-Apr-18 02:00N 64°24' E 021°42'0 0.0 340 / 61016.7 5.4 0.8
2018-Apr-18 01:00N 64°24' E 021°42'0 0.0 350 / 121016.6 5.7 0.9
2018-Apr-18 00:00N 64°24' E 021°42'0 0.0 340 / 121016.7 6.3 0.9
2018-Apr-17 23:00N 64°24' E 021°42'1212.3 340 / 121016.7 6.2 0.5
2018-Apr-17 22:00N 64°36' E 021°36'8 7.7 330 / 81017.0 3.3 1.5
2018-Apr-17 21:00N 64°36' E 021°18'1010.3 290 / 141016.8 3.0 1.0
2018-Apr-17 20:00N 64°36' E 021°42'1212.0 340 / 121016.0 4.5 1.2
2018-Apr-17 19:00N 64°24' E 021°42'3 2.6 350 / 121015.8 4.8 0.6
2018-Apr-17 18:00N 64°24' E 021°48'0 0.0 1015.5 5.0 0.8
2018-Apr-17 17:00N 64°24' E 021°48'0 0.0 360 / 141015.3 4.3 0.8
2018-Apr-17 16:00N 64°24' E 021°48'0 0.0 360 / 121015.2 3.9 0.8
2018-Apr-17 15:00N 64°24' E 021°48'0 0.0 360 / 121015.1 3.9 0.6
2018-Apr-17 14:00N 64°24' E 021°48'1212.3 1014.9 3.0 0.6
2018-Apr-17 13:00N 64°12' E 021°54'5 5.2 1016.7 1.9 0.4
2018-Apr-17 12:00N 64°12' E 022°06'0 0.0 360 / 161017.0 1.0 0.4
2018-Apr-17 11:00N 64°12' E 022°06'3 2.6 010 / 141017.0 0.4 0.4
2018-Apr-17 10:00N 64°12' E 022°12'1212.0 350 / 161016.5 0.6 0.4
2018-Apr-17 09:00N 64°00' E 022°12'10 9.9 1016.1 0.9 0.4
2018-Apr-17 08:00N 63°54' E 021°54'7 6.6 010 / 191015.6 1.0 0.4
2018-Apr-17 07:00N 64°00' E 022°00'6 6.0 050 / 61015.8 1.1 0.3
2018-Apr-17 06:00N 64°06' E 022°00'0 0.0 010 / 121015.2 1.0 0.5
2018-Apr-17 05:00N 64°06' E 022°00'0 0.0 1015.0 1.0 0.6
2018-Apr-17 04:00N 64°06' E 022°00'0 0.0 010 / 81014.8 1.6 0.6
2018-Apr-17 03:00N 64°06' E 022°00'0 0.0 010 / 101014.8 1.3 0.7
2018-Apr-17 02:00N 64°06' E 022°00'0 0.0 020 / 81013.2 2.0 0.7
2018-Apr-17 01:00N 64°06' E 022°00'0 0.0 100 / 61012.7 3.3 0.8
2018-Apr-17 00:00N 64°06' E 022°00'0 0.0 130 / 61013.1 2.6 0.8
2018-Apr-16 23:00N 64°06' E 022°00'0 0.0 130 / 21015.2 1.7 0.8
2018-Apr-16 22:00N 64°06' E 022°00'0 0.0 130 / 21013.6 2.0 0.8
2018-Apr-16 21:00N 64°06' E 022°00'0 0.0 130 / 41015.2 1.8 0.8
2018-Apr-16 20:00N 64°06' E 022°00'0 0.0 020 / 21013.1 2.2 0.8
2018-Apr-16 19:00N 64°06' E 022°00'0 0.0 340 / 61015.2 1.9 0.7
2018-Apr-16 18:00N 64°06' E 022°00'0 0.0 320 / 21015.2 1.7 0.8
2018-Apr-16 17:00N 64°06' E 022°00'0 0.0 310 / 41015.0 0.9 0.8
2018-Apr-16 16:00N 64°06' E 022°00'0 0.0 300 / 21013.3 2.2 0.7
2018-Apr-16 15:00N 64°06' E 022°00'0 0.0 230 / 41013.4 2.5 0.7
2018-Apr-16 14:00N 64°06' E 022°00'0 0.0 280 / 21013.3 3.7 0.7
2018-Apr-16 13:00N 64°06' E 022°00'0 0.0 240 / 41016.1 1.2 0.7
2018-Apr-16 12:00N 64°06' E 022°00'0 0.0 240 / 41016.3 1.0 0.7
2018-Apr-16 11:00N 64°06' E 022°00'0 0.0 180 / 21013.9 3.5 0.7
2018-Apr-16 10:00N 64°06' E 022°00'0 0.0 040 / 41016.6 0.9 0.6
2018-Apr-16 09:00N 64°06' E 022°00'0 0.0 020 / 21016.3 0.4 0.6
2018-Apr-16 08:00N 64°06' E 022°00'0 0.0 350 / 21016.2 -0.0 0.6
2018-Apr-16 07:00N 64°06' E 022°00'0 0.0 360 / 41015.9 -0.3 0.6
2018-Apr-16 06:00N 64°06' E 022°00'0 0.0 080 / 41015.9 0.4 0.6
2018-Apr-16 05:00N 64°06' E 022°00'0 0.0 070 / 81015.7 -0.5 0.5
2018-Apr-16 04:00N 64°06' E 022°00'0 0.0 020 / 81015.7 -1.3 0.4
2018-Apr-16 03:00N 64°06' E 022°00'0 0.0 020 / 81015.7 -1.2 0.5
2018-Apr-16 02:00N 64°06' E 022°00'0 0.0 010 / 121015.8 -0.7 0.4
2018-Apr-16 01:00N 64°06' E 022°00'6 6.0 050 / 81016.2 0.1 0.4
2018-Apr-16 00:00N 64°00' E 022°00'8 8.0 050 / 141016.0 -0.1 0.3
2018-Apr-15 23:00N 63°54' E 021°48'7 6.6 040 / 141016.2 -0.1 0.4
2018-Apr-15 22:00N 63°48' E 021°42'1414.4 050 / 121016.7 0.1 0.4
2018-Apr-15 21:00N 64°00' E 022°00'3 2.6 030 / 161017.4 -0.9 0.4
2018-Apr-15 20:00N 64°00' E 022°06'7 6.5 060 / 171017.5 0.6 0.3
2018-Apr-15 19:00N 64°06' E 022°00'1212.3 030 / 191018.2 0.2 0.3
2018-Apr-15 18:00N 64°18' E 022°06'1414.3 030 / 161018.9 -0.1 0.3
2018-Apr-15 17:00N 64°30' E 021°48'1211.9 360 / 81019.4 0.4 0.6
2018-Apr-15 16:00N 64°36' E 021°24'7 6.5 010 / 81020.0 0.7 1.2
2018-Apr-15 15:00N 64°42' E 021°18'0 0.0 1020.6 1.2 1.2
2018-Apr-15 14:00N 64°42' E 021°18'0 0.0 020 / 21021.2 1.4 1.3
2018-Apr-15 13:00N 64°42' E 021°18'0 0.0 060 / 61022.1 1.1 1.3
2018-Apr-15 12:00N 64°42' E 021°18'   030 / 81022.5 1.1 1.4
Track history (hours):
 
Tides and Currents Weather Stations Pressure Air Temp Water Temp Dewpoint Dewpoint Depression Visibility Wind Speed Wind Dir Waves Ship Positions

Frej

Last reported at 2018-Apr-25 12:00 UTC. Time now 2018-Apr-25 12:38 UTC.
Position N 65°00' E 021°42'.

Length 108 m; draft 7.2 m.

Type: Other ship. MMSI: 265068000.

Wind from 170 at 16 knots

Barometer 989.6 mb
Air temperature 0.4 ° C
Water temperature 0.7 ° C

Date/timePositionNaut miles runAvg speedWind from/ knotsBaromVisibWave heightAir tempDewpointWater temp
2018-Apr-25 12:00N 65°00' E 021°42'7 6.5 170 / 16989.6 0.4 0.7
2018-Apr-25 11:00N 65°06' E 021°36'0 0.0 320 / 6990.1 1.4 1.0
2018-Apr-25 10:00N 65°06' E 021°36'0 0.0 180 / 14990.0 1.0 1.5
2018-Apr-25 09:00N 65°06' E 021°36'0 0.0 180 / 14989.9 1.0 1.4
2018-Apr-25 08:00N 65°06' E 021°36'0 0.0 190 / 14990.1 0.5 1.2
2018-Apr-25 07:00N 65°06' E 021°36'0 0.0 190 / 14990.2 0.2 1.5
2018-Apr-25 06:00N 65°06' E 021°36'0 0.0 190 / 16990.2 -0.1 1.6
2018-Apr-25 05:00N 65°06' E 021°36'0 0.0 190 / 19990.3 0.6 1.5
2018-Apr-25 04:00N 65°06' E 021°36'0 0.0 180 / 16990.6 0.2 1.4
2018-Apr-25 03:00N 65°06' E 021°36'0 0.0 180 / 10990.8 -0.5 1.3
2018-Apr-25 02:00N 65°06' E 021°36'3 2.5 190 / 14991.1 -0.1 1.2
2018-Apr-25 01:00N 65°06' E 021°42'10 9.7 200 / 12991.4 0.1 0.6
2018-Apr-25 00:00N 65°00' E 022°00'8 7.6 200 / 14991.9 0.1 0.4
2018-Apr-24 23:00N 65°00' E 022°18'1212.0 210 / 19992.0 1.0 0.4
2018-Apr-24 22:00N 65°12' E 022°18'6 6.0 210 / 16991.8 0.9 0.4
2018-Apr-24 21:00N 65°18' E 022°18'6 6.0 220 / 21992.1 1.4 0.5
2018-Apr-24 20:00N 65°12' E 022°18'12 6.1 210 / 19992.2 1.3 0.4
2018-Apr-24 18:00N 65°00' E 022°12'1212.3 200 / 19991.6 1.0 0.5
2018-Apr-24 17:00N 65°12' E 022°18'1212.0 210 / 19991.1 0.6 0.4
2018-Apr-24 16:00N 65°24' E 022°18'6 6.5 190 / 16991.0 0.4 0.6
2018-Apr-24 15:00N 65°30' E 022°24'8 7.8 160 / 14991.5 1.4 0.6
2018-Apr-24 14:00N 65°36' E 022°12'0 0.0 150 / 14992.4 1.7 1.0
2018-Apr-24 13:00N 65°36' E 022°12'0 0.0 120 / 12993.3 1.8 1.0
2018-Apr-24 12:00N 65°36' E 022°12'0 0.0 140 / 17994.2 1.7 1.0
2018-Apr-24 11:00N 65°36' E 022°12'0 0.0 130 / 14994.8 1.4 1.0
2018-Apr-24 10:00N 65°36' E 022°12'0 0.0 150 / 10995.4 1.3 1.0
2018-Apr-24 09:00N 65°36' E 022°12'0 0.0 120 / 12996.1 1.0 1.0
2018-Apr-24 06:00N 65°36' E 022°12'0 0.0 130 / 10995.8 2.5 1.1
2018-Apr-24 03:00N 65°36' E 022°12'0 0.0 130 / 6998.4 2.0 1.1
2018-Apr-24 00:00N 65°36' E 022°12'1313.0 130 / 81002.8 1.6 0.5
2018-Apr-23 23:00N 65°24' E 022°24'7 6.5 140 / 121003.6 1.0 0.6
2018-Apr-23 22:00N 65°18' E 022°18'1212.0 170 / 121004.2 0.9 0.4
2018-Apr-23 21:00N 65°06' E 022°18'0 0.0 160 / 141004.8 0.8 0.7
2018-Apr-23 18:00N 65°06' E 022°18'0 0.0 160 / 141006.7 1.1 1.0
2018-Apr-23 17:00N 65°06' E 022°18'0 0.0 170 / 141007.2 1.4 1.0
2018-Apr-23 16:00N 65°06' E 022°18'0 0.0 170 / 141008.1 1.2 1.0
2018-Apr-23 15:00N 65°06' E 022°18'0 0.0 160 / 161008.8 1.2 1.0
2018-Apr-23 14:00N 65°06' E 022°18'8 7.6 170 / 161009.4 1.0 0.5
2018-Apr-23 13:00N 65°06' E 022°36'8 7.9 200 / 171010.3 1.5 0.8
2018-Apr-23 12:00N 65°00' E 022°24'8 7.9 170 / 191010.6 1.5 0.5
2018-Apr-23 11:00N 65°06' E 022°12'1211.8 160 / 141011.0 0.9 1.0
2018-Apr-23 10:00N 65°00' E 021°48'0 0.0 170 / 171010.6 0.7 0.6
2018-Apr-23 09:00N 65°00' E 021°48'1818.0 160 / 161011.6 1.0 0.6
2018-Apr-23 08:00N 64°42' E 021°48'6 6.0 170 / 121012.2 1.1 1.1
2018-Apr-23 07:00N 64°36' E 021°48'0 0.0 180 / 161012.7 0.1 1.2
2018-Apr-23 06:00N 64°36' E 021°48'0 0.0 170 / 141012.9 0.1 1.1
2018-Apr-23 05:00N 64°36' E 021°48'0 0.0 180 / 141013.2 0.1 1.0
2018-Apr-23 04:00N 64°36' E 021°48'3 2.6 180 / 141013.4 -0.2 0.9
2018-Apr-23 03:00N 64°36' E 021°42'0 0.0 180 / 121013.5 -0.1 0.9
2018-Apr-23 02:00N 64°36' E 021°42'0 0.0 180 / 141013.9 -0.0 1.0
2018-Apr-23 01:00N 64°36' E 021°42'0 0.0 180 / 161013.9 0.1 1.0
2018-Apr-23 00:00N 64°36' E 021°42'0 0.0 180 / 141014.3 -0.0 1.0
2018-Apr-22 23:00N 64°36' E 021°42'0 0.0 180 / 141014.6 -0.0 1.2
2018-Apr-22 22:00N 64°36' E 021°42'0 0.0 180 / 121014.8 0.2 1.2
2018-Apr-22 21:00N 64°36' E 021°42'0 0.0 200 / 161014.6 0.4 1.0
2018-Apr-22 20:00N 64°36' E 021°42'0 0.0 190 / 141014.8 0.1 1.0
2018-Apr-22 19:00N 64°36' E 021°42'0 0.0 180 / 161015.0 0.1 1.0
2018-Apr-22 18:00N 64°36' E 021°42'0 0.0 180 / 141015.1 0.2 0.9
2018-Apr-22 17:00N 64°36' E 021°42'0 0.0 180 / 141015.2 0.4 0.9
2018-Apr-22 16:00N 64°36' E 021°42'0 0.0 170 / 121015.2 0.4 0.9
2018-Apr-22 15:00N 64°36' E 021°42'0 0.0 160 / 121015.3 0.4 0.8
2018-Apr-22 14:00N 64°36' E 021°42'0 0.0 170 / 81015.5 0.4 0.8
2018-Apr-22 13:00N 64°36' E 021°42'0 0.0 130 / 81015.8 -0.3 1.0
2018-Apr-22 12:00N 64°36' E 021°42'7 6.5 100 / 101016.0 -1.1 0.7
2018-Apr-22 11:00N 64°30' E 021°48'3 2.6 060 / 41015.6 -1.2 0.6
2018-Apr-22 10:00N 64°30' E 021°42'1212.0 050 / 41015.3 0.2 1.4
2018-Apr-22 09:00N 64°18' E 021°42'7 6.5 020 / 81015.0 0.4 0.6
2018-Apr-22 08:00N 64°12' E 021°48'1212.3 350 / 101014.4 0.1 0.4
2018-Apr-22 07:00N 64°00' E 021°54'6 6.0 050 / 101013.3 0.2 0.4
2018-Apr-22 06:00N 64°06' E 021°54'8 8.0 060 / 81012.8 0.2 0.4
2018-Apr-22 05:00N 64°12' E 021°42'6 6.0 030 / 101012.2 -0.0 0.4
2018-Apr-22 04:00N 64°18' E 021°42'1212.3 030 / 101011.5 0.1 0.5
2018-Apr-22 03:00N 64°30' E 021°48'1212.0 040 / 141010.3 0.2 0.6
2018-Apr-22 02:00N 64°18' E 021°48'1212.3 040 / 121009.1 0.2 0.4
2018-Apr-22 01:00N 64°06' E 021°54'1212.0 020 / 161007.7 0.2 0.4
2018-Apr-22 00:00N 63°54' E 021°54'10 9.9 1006.8 -0.0 0.4
2018-Apr-21 23:00N 63°48' E 021°36'10 9.9 350 / 101006.1 -0.1 0.5
2018-Apr-21 22:00N 63°54' E 021°54'1212.0 020 / 61005.5 -0.1 0.5
2018-Apr-21 21:00N 64°06' E 021°54'1212.3 010 / 61005.0 -0.1 0.3
2018-Apr-21 20:00N 64°18' E 021°48'6 6.0 060 / 41004.7 -0.1 0.6
2018-Apr-21 19:00N 64°24' E 021°48'6 6.0 040 / 81004.4 -0.1 0.4
2018-Apr-21 18:00N 64°18' E 021°48'0 0.0 020 / 41003.9 -0.0 0.6
2018-Apr-21 17:00N 64°18' E 021°48'0 0.0 310 / 21003.8 0.1 0.9
2018-Apr-21 16:00N 64°18' E 021°48'0 0.0 310 / 21003.3 0.7 0.9
2018-Apr-21 15:00N 64°18' E 021°48'0 0.0 280 / 41003.2 0.2 0.8
2018-Apr-21 14:00N 64°18' E 021°48'0 0.0 060 / 81002.5 -0.1 0.8
2018-Apr-21 13:00N 64°18' E 021°48'0 0.0 040 / 81002.4 -0.1 1.0
2018-Apr-21 12:00N 64°18' E 021°48'0 0.0 020 / 41002.2 0.3 0.9
2018-Apr-21 11:00N 64°18' E 021°48'0 0.0 020 / 41001.5 0.3 0.8
2018-Apr-21 10:00N 64°18' E 021°48'0 0.0 030 / 81001.0 0.3 0.7
2018-Apr-21 09:00N 64°18' E 021°48'0 0.0 020 / 61000.5 0.2 0.8
2018-Apr-21 08:00N 64°18' E 021°48'0 0.0 020 / 8100.0 0.2 0.7
2018-Apr-21 07:00N 64°18' E 021°48'0 0.0 350 / 10999.6 0.2 0.7
2018-Apr-21 06:00N 64°18' E 021°48'0 0.0 020 / 8999.4 -0.1 0.6
2018-Apr-21 05:00N 64°18' E 021°48'0 0.0 020 / 12999.4 -0.2 0.6
2018-Apr-21 04:00N 64°18' E 021°48'0 0.0 999.3 -0.2 0.6
2018-Apr-21 03:00N 64°18' E 021°48'0 0.0 999.6 -0.4 0.7
2018-Apr-21 02:00N 64°18' E 021°48'3 2.6 340 / 12999.8 -0.3 0.8
2018-Apr-21 01:00N 64°18' E 021°54'0 0.0 360 / 81000.1 0.9 1.0
2018-Apr-21 00:00N 64°18' E 021°54'0 0.0 320 / 61000.5 1.8 1.0
2018-Apr-20 23:00N 64°18' E 021°54'0 0.0 330 / 6998.5 5.1 1.0
2018-Apr-20 22:00N 64°18' E 021°54'0 0.0 300 / 6999.3 4.3 0.8
2018-Apr-20 21:00N 64°18' E 021°54'0 0.0 360 / 6999.6 4.1 0.9
2018-Apr-20 20:00N 64°18' E 021°54'7 6.5 290 / 101000.7 7.0 0.5
2018-Apr-20 19:00N 64°24' E 021°48'1212.3 270 / 141001.6 7.1 0.6
2018-Apr-20 18:00N 64°12' E 021°54'1212.3 240 / 171002.9 4.0 0.3
2018-Apr-20 17:00N 64°00' E 022°00'5 5.3 240 / 141003.9 3.6 0.4
2018-Apr-20 16:00N 64°00' E 021°48'1313.2 210 / 101004.5 5.5 0.5
2018-Apr-20 15:00N 64°00' E 021°18'10 9.9 210 / 81005.6 6.5 0.5
2018-Apr-20 14:00N 63°54' E 021°00'8 8.0 250 / 81006.3 9.1 0.5
2018-Apr-20 13:00N 63°48' E 020°48'0 0.0 290 / 101007.2 8.5 1.0
2018-Apr-20 12:00N 63°48' E 020°48'0 0.0 310 / 101007.5 9.8 0.7
2018-Apr-20 11:00N 63°48' E 020°48'0 0.0 260 / 81008.7 3.5 1.5
2018-Apr-20 10:00N 63°48' E 020°48'0 0.0 230 / 161008.6 4.5 0.6
2018-Apr-20 09:00N 63°48' E 020°48'7 6.6 250 / 121009.6 3.0 0.9
2018-Apr-20 08:00N 63°54' E 020°54'3 2.6 260 / 101010.2 2.4 0.4
2018-Apr-20 07:00N 63°54' E 020°48'5 5.3 250 / 121010.7 2.2 0.4
2018-Apr-20 06:00N 63°54' E 021°00'3 2.6 240 / 171011.6 2.0 0.5
2018-Apr-20 05:00N 63°54' E 020°54'1212.1 200 / 191013.3 1.7 0.5
2018-Apr-20 04:00N 64°00' E 021°18'10 9.9 210 / 161014.7 0.9 0.4
2018-Apr-20 03:00N 64°06' E 021°36'1212.0 220 / 161015.7 1.1 0.4
2018-Apr-20 02:00N 64°18' E 021°36'7 6.5 220 / 121016.9 1.0 0.6
2018-Apr-20 01:00N 64°24' E 021°42'7 6.5 200 / 161017.4 1.3 0.7
2018-Apr-20 00:00N 64°30' E 021°48'6 6.0 180 / 161018.5 1.7 0.8
2018-Apr-19 23:00N 64°24' E 021°48'0 0.0 180 / 161018.1 2.0 0.8
2018-Apr-19 22:00N 64°24' E 021°48'0 0.0 170 / 161018.7 2.3 1.0
2018-Apr-19 21:00N 64°24' E 021°48'0 0.0 170 / 171019.4 3.0 1.0
2018-Apr-19 20:00N 64°24' E 021°48'0 0.0 160 / 171019.7 4.6 1.0
2018-Apr-19 19:00N 64°24' E 021°48'0 0.0 160 / 121020.3 5.9 1.0
2018-Apr-19 18:00N 64°24' E 021°48'0 0.0 170 / 121020.8 4.4 1.0
2018-Apr-19 17:00N 64°24' E 021°48'10 9.8 180 / 121021.3 4.2 0.5
2018-Apr-19 16:00N 64°30' E 022°06'1010.3 210 / 141021.5 3.1 0.4
2018-Apr-19 15:00N 64°30' E 022°30'0 0.0 030 / 141021.5 4.0 0.4
2018-Apr-19 14:00N 64°30' E 022°30'1312.9 040 / 121021.7 4.5 0.4
2018-Apr-19 13:00N 64°30' E 022°00'1211.9 050 / 161021.3 5.3 0.5
2018-Apr-19 12:00N 64°36' E 021°36'10 9.8 060 / 121021.5 6.8 1.9
2018-Apr-19 11:00N 64°42' E 021°18'0 0.0 040 / 141021.0 9.0 0.7
2018-Apr-19 10:00N 64°42' E 021°18'0 0.0 090 / 21020.8 7.5 1.0
2018-Apr-19 09:00N 64°42' E 021°18'6 6.0 350 / 81020.2 10.8 0.8
2018-Apr-19 08:00N 64°36' E 021°18'8 7.7 1019.9 7.6 0.6
2018-Apr-19 07:00N 64°36' E 021°36'8 7.9 310 / 231019.2 5.2 1.5
2018-Apr-19 06:00N 64°30' E 021°48'0 0.0 310 / 211018.6 5.2 0.6
2018-Apr-19 05:00N 64°30' E 021°48'0 0.0 320 / 211018.2 4.5 0.6
2018-Apr-19 04:00N 64°30' E 021°48'0 0.0 310 / 191017.5 4.0 0.6
2018-Apr-19 03:00N 64°30' E 021°48'0 0.0 310 / 191016.8 4.7 0.7
2018-Apr-19 02:00N 64°30' E 021°48'0 0.0 300 / 171016.3 4.8 0.7
2018-Apr-19 01:00N 64°30' E 021°48'3 2.6 300 / 171015.8 6.3 0.6
2018-Apr-19 00:00N 64°30' E 021°54'1211.9 280 / 171015.2 5.9 0.5
2018-Apr-18 23:00N 64°36' E 022°18'1312.9 270 / 211015.3 3.4 0.4
2018-Apr-18 22:00N 64°36' E 022°48'8 7.7 270 / 191017.3 1.8 0.3
2018-Apr-18 21:00N 64°36' E 022°30'1010.3 270 / 161015.7 2.1 0.3
2018-Apr-18 20:00N 64°36' E 022°06'1211.9 260 / 161015.1 4.6 0.4
2018-Apr-18 19:00N 64°30' E 021°42'3 2.6 270 / 141014.9 8.2 1.3
2018-Apr-18 18:00N 64°30' E 021°48'0 0.0 230 / 121015.2 4.8 0.9
2018-Apr-18 17:00N 64°30' E 021°48'3 2.6 220 / 121016.0 2.0 0.8
2018-Apr-18 16:00N 64°30' E 021°42'8 7.9 200 / 171015.9 2.0 1.4
2018-Apr-18 15:00N 64°36' E 021°30'8 7.9 180 / 141014.3 9.6 1.5
2018-Apr-18 14:00N 64°42' E 021°18'10 9.8 180 / 101014.6 11.5 0.6
2018-Apr-18 13:00N 64°36' E 021°36'1010.3 180 / 171015.8 5.7 1.4
2018-Apr-18 12:00N 64°36' E 022°00'1312.9 200 / 171017.1 2.1 0.4
2018-Apr-18 11:00N 64°36' E 022°30'0 0.0 210 / 81017.0 2.8 0.4
2018-Apr-18 10:00N 64°36' E 022°30'1312.9 250 / 41017.6 2.2 0.4
2018-Apr-18 09:00N 64°36' E 022°00'8 7.9 180 / 61017.1 3.3 0.4
2018-Apr-18 08:00N 64°30' E 021°48'0 0.0 200 / 81016.6 6.5 0.4
2018-Apr-18 07:00N 64°30' E 021°48'0 0.0 190 / 61017.1 3.5 0.4
2018-Apr-18 06:00N 64°30' E 021°48'0 0.0 230 / 61017.9 2.0 0.4
2018-Apr-18 05:00N 64°30' E 021°48'0 0.0 300 / 41017.1 4.1 0.4
2018-Apr-18 04:00N 64°30' E 021°48'0 0.0 330 / 101017.6 2.3 0.4
2018-Apr-18 03:00N 64°30' E 021°48'7 6.5 320 / 81019.6 0.7 0.5
2018-Apr-18 02:00N 64°24' E 021°42'0 0.0 340 / 61016.7 5.4 0.8
2018-Apr-18 01:00N 64°24' E 021°42'0 0.0 350 / 121016.6 5.7 0.9
2018-Apr-18 00:00N 64°24' E 021°42'0 0.0 340 / 121016.7 6.3 0.9
2018-Apr-17 23:00N 64°24' E 021°42'1212.3 340 / 121016.7 6.2 0.5
2018-Apr-17 22:00N 64°36' E 021°36'8 7.7 330 / 81017.0 3.3 1.5
2018-Apr-17 21:00N 64°36' E 021°18'1010.3 290 / 141016.8 3.0 1.0
2018-Apr-17 20:00N 64°36' E 021°42'1212.0 340 / 121016.0 4.5 1.2
2018-Apr-17 19:00N 64°24' E 021°42'3 2.6 350 / 121015.8 4.8 0.6
2018-Apr-17 18:00N 64°24' E 021°48'0 0.0 1015.5 5.0 0.8
2018-Apr-17 17:00N 64°24' E 021°48'0 0.0 360 / 141015.3 4.3 0.8
2018-Apr-17 16:00N 64°24' E 021°48'0 0.0 360 / 121015.2 3.9 0.8
2018-Apr-17 15:00N 64°24' E 021°48'0 0.0 360 / 121015.1 3.9 0.6
2018-Apr-17 14:00N 64°24' E 021°48'1212.3 1014.9 3.0 0.6
2018-Apr-17 13:00N 64°12' E 021°54'5 5.2 1016.7 1.9 0.4
2018-Apr-17 12:00N 64°12' E 022°06'0 0.0 360 / 161017.0 1.0 0.4
2018-Apr-17 11:00N 64°12' E 022°06'3 2.6 010 / 141017.0 0.4 0.4
2018-Apr-17 10:00N 64°12' E 022°12'1212.0 350 / 161016.5 0.6 0.4
2018-Apr-17 09:00N 64°00' E 022°12'10 9.9 1016.1 0.9 0.4
2018-Apr-17 08:00N 63°54' E 021°54'7 6.6 010 / 191015.6 1.0 0.4
2018-Apr-17 07:00N 64°00' E 022°00'6 6.0 050 / 61015.8 1.1 0.3
2018-Apr-17 06:00N 64°06' E 022°00'0 0.0 010 / 121015.2 1.0 0.5
2018-Apr-17 05:00N 64°06' E 022°00'0 0.0 1015.0 1.0 0.6
2018-Apr-17 04:00N 64°06' E 022°00'0 0.0 010 / 81014.8 1.6 0.6
2018-Apr-17 03:00N 64°06' E 022°00'0 0.0 010 / 101014.8 1.3 0.7
2018-Apr-17 02:00N 64°06' E 022°00'0 0.0 020 / 81013.2 2.0 0.7
2018-Apr-17 01:00N 64°06' E 022°00'0 0.0 100 / 61012.7 3.3 0.8
2018-Apr-17 00:00N 64°06' E 022°00'0 0.0 130 / 61013.1 2.6 0.8
2018-Apr-16 23:00N 64°06' E 022°00'0 0.0 130 / 21015.2 1.7 0.8
2018-Apr-16 22:00N 64°06' E 022°00'0 0.0 130 / 21013.6 2.0 0.8
2018-Apr-16 21:00N 64°06' E 022°00'0 0.0 130 / 41015.2 1.8 0.8
2018-Apr-16 20:00N 64°06' E 022°00'0 0.0 020 / 21013.1 2.2 0.8
2018-Apr-16 19:00N 64°06' E 022°00'0 0.0 340 / 61015.2 1.9 0.7
2018-Apr-16 18:00N 64°06' E 022°00'0 0.0 320 / 21015.2 1.7 0.8
2018-Apr-16 17:00N 64°06' E 022°00'0 0.0 310 / 41015.0 0.9 0.8
2018-Apr-16 16:00N 64°06' E 022°00'0 0.0 300 / 21013.3 2.2 0.7
2018-Apr-16 15:00N 64°06' E 022°00'0 0.0 230 / 41013.4 2.5 0.7
2018-Apr-16 14:00N 64°06' E 022°00'0 0.0 280 / 21013.3 3.7 0.7
2018-Apr-16 13:00N 64°06' E 022°00'0 0.0 240 / 41016.1 1.2 0.7
2018-Apr-16 12:00N 64°06' E 022°00'0 0.0 240 / 41016.3 1.0 0.7
2018-Apr-16 11:00N 64°06' E 022°00'0 0.0 180 / 21013.9 3.5 0.7
2018-Apr-16 10:00N 64°06' E 022°00'0 0.0 040 / 41016.6 0.9 0.6
2018-Apr-16 09:00N 64°06' E 022°00'0 0.0 020 / 21016.3 0.4 0.6
2018-Apr-16 08:00N 64°06' E 022°00'0 0.0 350 / 21016.2 -0.0 0.6
2018-Apr-16 07:00N 64°06' E 022°00'0 0.0 360 / 41015.9 -0.3 0.6
2018-Apr-16 06:00N 64°06' E 022°00'0 0.0 080 / 41015.9 0.4 0.6
2018-Apr-16 05:00N 64°06' E 022°00'0 0.0 070 / 81015.7 -0.5 0.5
2018-Apr-16 04:00N 64°06' E 022°00'0 0.0 020 / 81015.7 -1.3 0.4
2018-Apr-16 03:00N 64°06' E 022°00'0 0.0 020 / 81015.7 -1.2 0.5
2018-Apr-16 02:00N 64°06' E 022°00'0 0.0 010 / 121015.8 -0.7 0.4
2018-Apr-16 01:00N 64°06' E 022°00'6 6.0 050 / 81016.2 0.1 0.4
2018-Apr-16 00:00N 64°00' E 022°00'8 8.0 050 / 141016.0 -0.1 0.3
2018-Apr-15 23:00N 63°54' E 021°48'7 6.6 040 / 141016.2 -0.1 0.4
2018-Apr-15 22:00N 63°48' E 021°42'1414.4 050 / 121016.7 0.1 0.4
2018-Apr-15 21:00N 64°00' E 022°00'3 2.6 030 / 161017.4 -0.9 0.4
2018-Apr-15 20:00N 64°00' E 022°06'7 6.5 060 / 171017.5 0.6 0.3
2018-Apr-15 19:00N 64°06' E 022°00'1212.3 030 / 191018.2 0.2 0.3
2018-Apr-15 18:00N 64°18' E 022°06'1414.3 030 / 161018.9 -0.1 0.3
2018-Apr-15 17:00N 64°30' E 021°48'1211.9 360 / 81019.4 0.4 0.6
2018-Apr-15 16:00N 64°36' E 021°24'7 6.5 010 / 81020.0 0.7 1.2
2018-Apr-15 15:00N 64°42' E 021°18'0 0.0 1020.6 1.2 1.2
2018-Apr-15 14:00N 64°42' E 021°18'0 0.0 020 / 21021.2 1.4 1.3
2018-Apr-15 13:00N 64°42' E 021°18'0 0.0 060 / 61022.1 1.1 1.3
2018-Apr-15 12:00N 64°42' E 021°18'   030 / 81022.5 1.1 1.4

Dump ship's entire track history